createdAt,value
2018-04-30T00:02:09.944Z,3.00
2018-04-30T00:04:39.974Z,3.30
2018-04-30T00:07:07.513Z,3.50
2018-04-30T00:09:35.093Z,3.67
2018-04-30T00:12:02.775Z,3.30
2018-04-30T00:14:30.303Z,3.83
2018-04-30T00:16:58.784Z,3.83
2018-04-30T00:19:26.410Z,3.20
2018-04-30T00:21:55.985Z,3.30
2018-04-30T00:24:25.353Z,3.20
2018-04-30T00:26:53.955Z,3.57
2018-04-30T00:29:21.522Z,4.23
2018-04-30T00:31:50.140Z,4.13
2018-04-30T00:34:26.208Z,4.83
2018-04-30T00:36:53.759Z,3.90
2018-04-30T00:42:26.177Z,3.43
2018-04-30T00:44:53.700Z,3.93
2018-04-30T00:47:21.220Z,3.33
2018-04-30T00:49:49.742Z,3.80
2018-04-30T00:52:18.334Z,3.40
2018-04-30T00:54:58.397Z,3.37
2018-04-30T00:57:28.721Z,3.70
2018-04-30T00:59:57.988Z,3.57
2018-04-30T01:02:27.652Z,3.20
2018-04-30T01:04:55.269Z,4.00
2018-04-30T01:07:25.496Z,3.43
2018-04-30T01:09:54.004Z,3.60
2018-04-30T01:12:24.651Z,4.13
2018-04-30T01:14:52.213Z,3.97
2018-04-30T01:17:20.757Z,3.90
2018-04-30T01:19:48.283Z,3.90
2018-04-30T01:22:17.828Z,3.80
2018-04-30T01:24:46.137Z,3.90
2018-04-30T01:27:13.738Z,4.00
2018-04-30T01:29:42.225Z,3.40
2018-04-30T01:32:09.799Z,3.37
2018-04-30T01:34:39.130Z,4.27
2018-04-30T01:37:08.503Z,3.73
2018-04-30T01:39:38.057Z,3.60
2018-04-30T01:42:06.601Z,3.60
2018-04-30T01:44:34.949Z,3.87
2018-04-30T01:47:02.532Z,3.23
2018-04-30T01:49:30.084Z,4.70
2018-04-30T01:51:59.221Z,3.00
2018-04-30T01:54:27.770Z,3.57
2018-04-30T01:56:55.396Z,2.90
2018-04-30T01:59:23.948Z,3.80
2018-04-30T02:01:51.871Z,3.93
2018-04-30T02:04:19.468Z,4.00
2018-04-30T02:06:47.526Z,3.63
2018-04-30T02:09:16.865Z,3.37
2018-04-30T02:11:45.425Z,3.67
2018-04-30T02:14:12.963Z,3.23
2018-04-30T02:16:54.624Z,3.80
2018-04-30T02:19:23.151Z,3.03
2018-04-30T02:21:55.633Z,4.77
2018-04-30T02:24:25.927Z,3.97
2018-04-30T02:26:54.444Z,3.60
2018-04-30T02:29:25.069Z,3.30
2018-04-30T02:31:53.645Z,3.60
2018-04-30T02:34:23.296Z,3.17
2018-04-30T02:36:51.810Z,4.07
2018-04-30T02:39:20.766Z,3.47
2018-04-30T02:41:48.414Z,3.47
2018-04-30T02:44:17.905Z,3.97
2018-04-30T02:46:45.725Z,3.67
2018-04-30T02:49:14.355Z,3.60
2018-04-30T02:51:41.830Z,3.33
2018-04-30T02:54:09.384Z,4.07
2018-04-30T02:56:37.846Z,4.70
2018-04-30T02:59:07.153Z,3.73
2018-04-30T03:01:35.438Z,3.87
2018-04-30T03:04:03.755Z,3.70
2018-04-30T03:06:31.306Z,4.57
2018-04-30T03:09:00.866Z,3.60
2018-04-30T03:11:29.168Z,3.50
2018-04-30T03:13:58.011Z,4.03
2018-04-30T03:16:26.640Z,3.23
2018-04-30T03:18:54.986Z,3.60
2018-04-30T03:21:23.023Z,4.70
2018-04-30T03:23:50.564Z,3.50
2018-04-30T03:26:18.232Z,3.60
2018-04-30T03:28:45.767Z,3.33
2018-04-30T03:31:24.111Z,4.17
2018-04-30T03:33:52.770Z,4.60
2018-04-30T03:36:20.361Z,4.70
2018-04-30T03:38:48.368Z,5.40
2018-04-30T03:41:21.823Z,4.47
2018-04-30T03:43:50.154Z,5.03
2018-04-30T03:46:17.724Z,5.20
2018-04-30T03:48:45.350Z,5.43
2018-04-30T03:51:13.816Z,5.83
2018-04-30T03:53:42.152Z,5.83
2018-04-30T03:56:09.774Z,5.40
2018-04-30T03:58:38.186Z,6.47
2018-04-30T04:01:17.571Z,5.97
2018-04-30T04:03:58.476Z,6.83
2018-04-30T04:06:45.448Z,6.10
2018-04-30T04:09:13.048Z,5.97
2018-04-30T04:11:40.621Z,6.00
2018-04-30T04:14:08.284Z,5.77
2018-04-30T04:16:35.927Z,6.10
2018-04-30T04:19:04.352Z,6.30
2018-04-30T04:21:32.007Z,4.00
2018-04-30T04:23:59.619Z,2.97
2018-04-30T04:26:27.973Z,3.00
2018-04-30T04:28:55.577Z,2.90
2018-04-30T04:31:23.165Z,2.30
2018-04-30T04:33:50.777Z,1.87
2018-04-30T04:36:19.184Z,2.00
2018-04-30T04:38:46.778Z,1.87
2018-04-30T04:41:14.376Z,1.80
2018-04-30T04:43:42.754Z,2.43
2018-04-30T04:46:11.172Z,2.80
2018-04-30T04:48:38.833Z,2.00
2018-04-30T04:51:06.601Z,1.40
2018-04-30T04:53:34.232Z,1.80
2018-04-30T04:56:01.831Z,1.97
2018-04-30T04:58:29.489Z,1.23
2018-04-30T05:00:57.268Z,1.93
2018-04-30T05:03:25.147Z,2.00
2018-04-30T05:05:52.820Z,1.50
2018-04-30T05:08:20.695Z,2.37
2018-04-30T05:10:48.345Z,1.87
2018-04-30T05:13:16.041Z,1.83
2018-04-30T05:15:43.594Z,1.30
2018-04-30T05:18:11.197Z,2.07
2018-04-30T05:20:38.805Z,1.63
2018-04-30T05:23:07.220Z,1.60
2018-04-30T05:25:34.927Z,1.50
2018-04-30T05:28:02.678Z,1.93
2018-04-30T05:30:30.736Z,1.30
2018-04-30T05:32:58.362Z,1.97
2018-04-30T05:35:26.027Z,1.53
2018-04-30T05:37:53.796Z,2.03
2018-04-30T05:40:21.512Z,3.33
2018-04-30T05:42:49.162Z,1.67
2018-04-30T05:45:16.769Z,1.67
2018-04-30T05:47:44.384Z,1.70
2018-04-30T05:50:12.981Z,1.73
2018-04-30T05:52:40.714Z,1.57
2018-04-30T05:55:09.675Z,1.77
2018-04-30T05:57:38.133Z,1.60
2018-04-30T06:00:05.867Z,2.70
2018-04-30T06:02:33.497Z,1.40
2018-04-30T06:05:01.079Z,2.30
2018-04-30T06:07:28.662Z,2.13
2018-04-30T06:09:56.267Z,1.73
2018-04-30T06:12:23.813Z,1.60
2018-04-30T06:14:52.254Z,1.70
2018-04-30T06:17:19.941Z,2.20
2018-04-30T06:19:48.401Z,1.70
2018-04-30T06:22:16.018Z,1.97
2018-04-30T06:24:43.642Z,1.70
2018-04-30T06:27:11.261Z,1.47
2018-04-30T06:29:38.818Z,1.67
2018-04-30T06:32:06.408Z,2.07
2018-04-30T06:34:34.027Z,3.33
2018-04-30T06:37:01.706Z,1.80
2018-04-30T06:39:29.315Z,2.20
2018-04-30T06:41:57.705Z,3.23
2018-04-30T06:44:26.092Z,2.07
2018-04-30T06:46:54.467Z,2.17
2018-04-30T06:49:23.899Z,1.60
2018-04-30T06:51:51.446Z,1.90
2018-04-30T06:54:19.049Z,1.40
2018-04-30T06:56:46.713Z,1.90
2018-04-30T06:59:14.357Z,1.80
2018-04-30T07:01:43.977Z,2.17
2018-04-30T07:04:11.649Z,1.70
2018-04-30T07:06:39.293Z,2.30
2018-04-30T07:09:06.946Z,1.63
2018-04-30T07:11:35.295Z,2.30
2018-04-30T07:14:03.737Z,2.77
2018-04-30T07:16:31.410Z,2.47
2018-04-30T07:18:59.039Z,1.90
2018-04-30T07:21:26.722Z,2.70
2018-04-30T07:23:54.323Z,2.33
2018-04-30T07:26:21.944Z,1.90
2018-04-30T07:28:49.598Z,1.70
2018-04-30T07:31:17.212Z,2.73
2018-04-30T07:33:44.864Z,3.80
2018-04-30T07:36:13.232Z,2.10
2018-04-30T07:38:41.728Z,3.33
2018-04-30T07:41:10.367Z,2.70
2018-04-30T07:43:38.489Z,2.20
2018-04-30T07:46:06.080Z,3.33
2018-04-30T07:48:33.794Z,2.00
2018-04-30T07:51:01.409Z,4.37
2018-04-30T07:53:29.381Z,2.33
2018-04-30T07:55:57.040Z,1.70
2018-04-30T07:58:24.588Z,1.60
2018-04-30T08:00:52.227Z,1.67
2018-04-30T08:03:19.778Z,1.70
2018-04-30T08:05:48.463Z,2.10
2018-04-30T08:08:16.909Z,6.70
2018-04-30T08:10:44.557Z,2.03
2018-04-30T08:13:13.155Z,2.23
2018-04-30T08:15:41.568Z,2.00
2018-04-30T08:18:09.546Z,1.60
2018-04-30T08:20:37.102Z,1.30
2018-04-30T08:23:17.894Z,1.03
2018-04-30T08:25:45.595Z,1.10
2018-04-30T08:28:13.195Z,1.43
2018-04-30T08:30:41.877Z,1.87
2018-04-30T08:33:10.331Z,1.53
2018-04-30T08:35:38.339Z,1.20
2018-04-30T08:38:06.299Z,1.20
2018-04-30T08:40:34.648Z,1.80
2018-04-30T08:43:02.547Z,1.10
2018-04-30T08:45:30.987Z,1.90
2018-04-30T08:47:58.596Z,1.30
2018-04-30T08:50:26.297Z,2.00
2018-04-30T08:52:54.075Z,2.73
2018-04-30T08:55:21.851Z,1.33
2018-04-30T08:57:50.408Z,1.47
2018-04-30T09:00:18.002Z,2.13
2018-04-30T09:02:46.444Z,1.40
2018-04-30T09:05:14.029Z,2.07
2018-04-30T09:07:41.938Z,1.53
2018-04-30T09:10:10.459Z,1.60
2018-04-30T09:12:38.052Z,1.50
2018-04-30T09:15:06.711Z,1.60
2018-04-30T09:17:34.248Z,2.00
2018-04-30T09:20:02.076Z,1.70
2018-04-30T09:22:30.477Z,1.20
2018-04-30T09:24:58.843Z,1.73
2018-04-30T09:27:26.563Z,1.90
2018-04-30T09:29:54.394Z,1.40
2018-04-30T09:32:21.964Z,1.77
2018-04-30T09:34:49.659Z,2.60
2018-04-30T09:37:17.320Z,1.47
2018-04-30T09:39:46.378Z,1.60
2018-04-30T09:42:14.049Z,1.77
2018-04-30T09:44:41.634Z,1.20
2018-04-30T09:47:09.260Z,1.13
2018-04-30T09:49:36.857Z,1.30
2018-04-30T09:52:04.538Z,1.50
2018-04-30T09:54:32.206Z,1.80
2018-04-30T09:57:00.625Z,1.50
2018-04-30T09:59:28.224Z,2.40
2018-04-30T10:01:56.781Z,1.50
2018-04-30T10:04:24.377Z,1.80
2018-04-30T10:06:52.756Z,1.50
2018-04-30T10:09:20.359Z,1.10
2018-04-30T10:11:47.941Z,1.30
2018-04-30T10:14:15.530Z,1.40
2018-04-30T10:16:43.159Z,1.50
2018-04-30T10:19:10.723Z,2.20
2018-04-30T10:21:38.596Z,1.23
2018-04-30T10:24:06.206Z,0.80
2018-04-30T10:26:33.740Z,0.90
2018-04-30T10:29:01.551Z,1.60
2018-04-30T10:31:31.027Z,1.67
2018-04-30T10:33:58.804Z,1.43
2018-04-30T10:36:26.373Z,1.60
2018-04-30T10:38:53.999Z,1.40
2018-04-30T10:41:22.758Z,1.33
2018-04-30T10:43:50.428Z,1.30
2018-04-30T10:46:17.989Z,1.27
2018-04-30T10:48:45.563Z,1.53
2018-04-30T10:51:13.323Z,1.00
2018-04-30T10:53:40.962Z,1.50
2018-04-30T10:56:08.631Z,0.90
2018-04-30T10:58:36.280Z,1.50
2018-04-30T11:01:03.977Z,1.40
2018-04-30T11:03:31.643Z,1.60
2018-04-30T11:06:00.067Z,1.80
2018-04-30T11:08:27.680Z,2.07
2018-04-30T11:10:55.440Z,3.20
2018-04-30T11:13:25.346Z,2.13
2018-04-30T11:15:53.205Z,1.70
2018-04-30T11:18:21.075Z,1.77
2018-04-30T11:20:48.732Z,2.10
2018-04-30T11:23:16.427Z,1.47
2018-04-30T11:25:45.075Z,2.40
2018-04-30T11:28:12.768Z,2.50
2018-04-30T11:30:40.466Z,2.10
2018-04-30T11:33:08.192Z,2.40
2018-04-30T11:35:36.787Z,3.00
2018-04-30T11:38:05.681Z,3.80
2018-04-30T11:40:33.439Z,3.17
2018-04-30T11:43:01.224Z,1.77
2018-04-30T11:45:28.856Z,1.83
2018-04-30T11:47:57.669Z,1.40
2018-04-30T11:50:25.317Z,1.87
2018-04-30T11:52:52.951Z,2.00
2018-04-30T11:55:20.963Z,2.27
2018-04-30T11:57:48.928Z,1.90
2018-04-30T12:00:16.699Z,2.27
2018-04-30T12:02:44.681Z,1.70
2018-04-30T12:05:14.395Z,1.60
2018-04-30T12:07:42.025Z,1.80
2018-04-30T12:10:10.567Z,2.77
2018-04-30T12:12:38.401Z,1.73
2018-04-30T12:15:06.137Z,1.50
2018-04-30T12:17:33.761Z,2.00
2018-04-30T12:20:01.423Z,2.20
2018-04-30T12:22:29.280Z,2.03
2018-04-30T12:24:57.021Z,2.53
2018-04-30T12:27:24.736Z,2.30
2018-04-30T12:29:52.586Z,2.07
2018-04-30T12:32:20.181Z,2.67
2018-04-30T12:34:47.826Z,2.20
2018-04-30T12:37:15.499Z,2.30
2018-04-30T12:39:43.199Z,2.00
2018-04-30T12:42:11.225Z,1.90
2018-04-30T12:44:39.913Z,2.27
2018-04-30T12:47:07.582Z,2.10
2018-04-30T12:49:35.486Z,2.30
2018-04-30T12:52:03.109Z,2.60
2018-04-30T12:54:31.681Z,1.60
2018-04-30T12:57:00.095Z,1.87
2018-04-30T12:59:27.910Z,1.53
2018-04-30T13:01:55.590Z,2.10
2018-04-30T13:04:24.210Z,2.60
2018-04-30T13:06:52.393Z,1.77
2018-04-30T13:09:20.211Z,1.57
2018-04-30T13:11:48.690Z,1.70
2018-04-30T13:14:16.375Z,1.60
2018-04-30T13:16:44.472Z,1.70
2018-04-30T13:19:12.999Z,1.73
2018-04-30T13:21:40.672Z,1.90
2018-04-30T13:24:08.308Z,2.47
2018-04-30T13:26:37.168Z,1.80
2018-04-30T13:29:05.043Z,1.73
2018-04-30T13:31:33.481Z,1.83
2018-04-30T13:34:02.220Z,1.60
2018-04-30T13:36:29.846Z,1.67
2018-04-30T13:38:58.404Z,1.50
2018-04-30T13:41:26.266Z,1.90
2018-04-30T13:43:53.972Z,1.63
2018-04-30T13:46:22.736Z,1.80
2018-04-30T13:48:51.265Z,1.60
2018-04-30T13:51:18.988Z,3.83
2018-04-30T13:53:47.450Z,1.57
2018-04-30T13:56:15.105Z,1.70
2018-04-30T13:58:42.824Z,1.50
2018-04-30T14:01:11.377Z,2.27
2018-04-30T14:03:39.174Z,1.90
2018-04-30T14:06:06.886Z,2.13
2018-04-30T14:08:34.549Z,1.67
2018-04-30T14:11:02.601Z,1.80
2018-04-30T14:13:30.396Z,1.70
2018-04-30T14:15:58.928Z,1.77
2018-04-30T14:18:27.534Z,2.37
2018-04-30T14:20:55.268Z,2.10
2018-04-30T14:23:22.987Z,2.00
2018-04-30T14:25:51.531Z,2.40
2018-04-30T14:28:19.927Z,1.53
2018-04-30T14:30:48.440Z,1.50
2018-04-30T14:33:16.106Z,1.87
2018-04-30T14:35:43.767Z,1.70
2018-04-30T14:38:11.421Z,2.37
2018-04-30T14:40:39.049Z,2.03
2018-04-30T14:43:07.476Z,1.60
2018-04-30T14:45:35.133Z,2.10
2018-04-30T14:48:02.793Z,2.00
2018-04-30T14:50:30.406Z,2.40
2018-04-30T14:52:58.558Z,2.00
2018-04-30T14:55:27.037Z,2.07
2018-04-30T14:57:55.591Z,2.40
2018-04-30T15:00:23.270Z,2.80
2018-04-30T15:02:51.039Z,2.70
2018-04-30T15:05:18.713Z,2.30
2018-04-30T15:07:47.481Z,3.07
2018-04-30T15:10:15.297Z,2.70
2018-04-30T15:12:43.025Z,1.97
2018-04-30T15:15:10.763Z,2.20
2018-04-30T15:17:39.414Z,2.30
2018-04-30T15:20:07.174Z,2.40
2018-04-30T15:22:35.834Z,1.87
2018-04-30T15:25:04.337Z,2.10
2018-04-30T15:27:32.034Z,2.33
2018-04-30T15:29:59.729Z,2.03
2018-04-30T15:32:27.600Z,2.00
2018-04-30T15:34:56.152Z,2.00
2018-04-30T15:37:24.947Z,3.00
2018-04-30T15:39:52.615Z,2.27
2018-04-30T15:42:20.441Z,2.67
2018-04-30T15:44:49.060Z,1.93
2018-04-30T15:47:16.762Z,2.77
2018-04-30T15:49:45.507Z,2.43
2018-04-30T15:52:13.169Z,2.67
2018-04-30T15:54:41.132Z,1.67
2018-04-30T15:57:09.654Z,2.17
2018-04-30T15:59:38.235Z,2.30
2018-04-30T16:02:06.633Z,2.17
2018-04-30T16:04:35.182Z,2.13
2018-04-30T16:07:02.915Z,2.23
2018-04-30T16:09:30.701Z,1.93
2018-04-30T16:11:58.475Z,2.50
2018-04-30T16:14:26.260Z,2.90
2018-04-30T16:16:54.731Z,2.80
2018-04-30T16:19:22.708Z,2.60
2018-04-30T16:21:50.401Z,2.60
2018-04-30T16:24:18.898Z,2.07
2018-04-30T16:26:47.654Z,2.70
2018-04-30T16:29:15.513Z,2.50
2018-04-30T16:31:43.236Z,2.33
2018-04-30T16:34:11.135Z,2.97
2018-04-30T16:36:39.701Z,2.40
2018-04-30T16:39:07.372Z,2.30
2018-04-30T16:41:35.108Z,2.67
2018-04-30T16:44:02.804Z,2.70
2018-04-30T16:46:30.429Z,2.70
2018-04-30T16:48:58.105Z,2.50
2018-04-30T16:51:26.003Z,2.23
2018-04-30T16:53:54.401Z,2.10
2018-04-30T16:56:22.984Z,2.40
2018-04-30T16:58:51.757Z,2.73
2018-04-30T17:01:19.457Z,2.10
2018-04-30T17:03:47.153Z,2.50
2018-04-30T17:06:15.775Z,2.63
2018-04-30T17:08:43.465Z,2.23
2018-04-30T17:11:11.137Z,2.40
2018-04-30T17:13:39.574Z,2.40
2018-04-30T17:16:07.371Z,2.60
2018-04-30T17:18:35.210Z,2.13
2018-04-30T17:21:02.860Z,2.60
2018-04-30T17:23:31.773Z,2.50
2018-04-30T17:26:00.272Z,3.03
2018-04-30T17:28:28.860Z,2.63
2018-04-30T17:30:57.509Z,3.97
2018-04-30T17:33:25.440Z,2.60
2018-04-30T17:35:53.976Z,2.93
2018-04-30T17:38:21.991Z,2.53
2018-04-30T17:40:49.929Z,4.20
2018-04-30T17:43:17.677Z,2.27
2018-04-30T17:45:45.511Z,2.20
2018-04-30T17:48:13.358Z,2.60
2018-04-30T17:50:41.123Z,2.77
2018-04-30T17:53:08.855Z,2.37
2018-04-30T17:55:37.072Z,2.10
2018-04-30T17:58:07.071Z,2.70
2018-04-30T18:00:34.720Z,2.90
2018-04-30T18:03:03.292Z,3.20
2018-04-30T18:05:31.162Z,2.37
2018-04-30T18:07:59.768Z,2.93
2018-04-30T18:10:28.395Z,3.13
2018-04-30T18:12:56.370Z,3.17
2018-04-30T18:15:24.044Z,4.37
2018-04-30T18:17:51.722Z,4.57
2018-04-30T18:20:19.428Z,3.43
2018-04-30T18:22:47.067Z,3.47
2018-04-30T18:25:15.094Z,4.00
2018-04-30T18:27:42.788Z,4.40
2018-04-30T18:30:10.707Z,5.10
2018-04-30T18:32:38.381Z,5.57
2018-04-30T18:35:06.149Z,5.30
2018-04-30T18:37:33.998Z,4.50
2018-04-30T18:40:01.592Z,3.97
2018-04-30T18:42:29.427Z,3.53
2018-04-30T18:44:57.101Z,3.83
2018-04-30T18:47:24.879Z,2.93
2018-04-30T18:49:52.825Z,3.20
2018-04-30T18:52:20.666Z,3.73
2018-04-30T18:54:48.381Z,4.00
2018-04-30T18:57:16.279Z,3.87
2018-04-30T18:59:43.917Z,4.07
2018-04-30T19:02:11.549Z,3.60
2018-04-30T19:04:39.244Z,4.63
2018-04-30T19:07:06.988Z,4.17
2018-04-30T19:09:34.803Z,4.70
2018-04-30T19:12:02.721Z,3.43
2018-04-30T19:14:30.802Z,3.20
2018-04-30T19:16:59.165Z,3.63
2018-04-30T19:19:26.894Z,4.60
2018-04-30T19:21:55.325Z,3.43
2018-04-30T19:24:22.995Z,2.80
2018-04-30T19:26:50.956Z,3.40
2018-04-30T19:29:18.564Z,3.47
2018-04-30T19:31:46.195Z,3.20
2018-04-30T19:34:14.023Z,3.90
2018-04-30T19:36:41.722Z,3.43
2018-04-30T19:39:09.378Z,3.93
2018-04-30T19:41:37.963Z,3.50
2018-04-30T19:44:05.813Z,4.40
2018-04-30T19:46:33.477Z,4.53
2018-04-30T19:49:01.192Z,4.40
2018-04-30T19:51:28.817Z,3.53
2018-04-30T19:53:57.487Z,3.80
2018-04-30T19:56:25.112Z,4.20
2018-04-30T19:58:52.816Z,4.87
2018-04-30T20:01:20.601Z,4.40
2018-04-30T20:03:48.264Z,4.00
2018-04-30T20:06:15.991Z,4.63
2018-04-30T20:08:43.640Z,4.63
2018-04-30T20:11:11.224Z,4.93
2018-04-30T20:13:38.927Z,4.20
2018-04-30T20:16:07.313Z,4.87
2018-04-30T20:18:35.876Z,3.40
2018-04-30T20:21:03.556Z,4.57
2018-04-30T20:23:31.307Z,3.87
2018-04-30T20:25:59.042Z,4.40
2018-04-30T20:28:26.697Z,4.07
2018-04-30T20:30:54.377Z,8.23
2018-04-30T20:33:22.039Z,3.50
2018-04-30T20:35:49.713Z,3.90
2018-04-30T20:38:17.362Z,4.83
2018-04-30T20:40:45.213Z,4.40
2018-04-30T20:43:13.118Z,4.80
2018-04-30T20:45:41.091Z,4.93
2018-04-30T20:48:08.799Z,4.20
2018-04-30T20:50:37.228Z,4.20
2018-04-30T20:53:04.895Z,5.47
2018-04-30T20:55:32.622Z,3.27
2018-04-30T20:58:00.292Z,2.87
2018-04-30T21:00:27.970Z,2.87
2018-04-30T21:02:55.658Z,3.03
2018-04-30T21:05:23.379Z,2.80
2018-04-30T21:07:50.978Z,3.43
2018-04-30T21:10:18.632Z,2.43
2018-04-30T21:12:46.457Z,2.20
2018-04-30T21:15:14.027Z,2.80
2018-04-30T21:17:42.886Z,2.70
2018-04-30T21:20:11.191Z,2.90
2018-04-30T21:22:38.843Z,2.90
2018-04-30T21:25:06.516Z,3.50
2018-04-30T21:27:34.290Z,3.40
2018-04-30T21:30:02.051Z,3.40
2018-04-30T21:32:29.703Z,3.40
2018-04-30T21:34:57.415Z,3.00
2018-04-30T21:37:25.043Z,2.83
2018-04-30T21:39:52.735Z,3.07
2018-04-30T21:42:20.372Z,3.40
2018-04-30T21:44:48.119Z,3.17
2018-04-30T21:47:16.162Z,2.97
2018-04-30T21:49:43.782Z,3.20
2018-04-30T21:52:11.366Z,2.97
2018-04-30T21:54:39.102Z,3.50
2018-04-30T21:57:06.727Z,3.60
2018-04-30T21:59:34.379Z,3.00
2018-04-30T22:02:02.004Z,2.73
2018-04-30T22:04:30.052Z,3.30
2018-04-30T22:06:58.244Z,3.20
2018-04-30T22:09:25.959Z,3.10
2018-04-30T22:11:53.680Z,3.10
2018-04-30T22:14:21.386Z,3.33
2018-04-30T22:16:49.164Z,3.23
2018-04-30T22:19:16.823Z,3.07
2018-04-30T22:21:44.500Z,3.30
2018-04-30T22:24:12.275Z,3.60
2018-04-30T22:26:40.012Z,3.00
2018-04-30T22:29:08.386Z,3.03
2018-04-30T22:31:36.036Z,3.27
2018-04-30T22:34:03.742Z,3.00
2018-04-30T22:36:31.377Z,3.53
2018-04-30T22:38:59.037Z,2.80
2018-04-30T22:41:26.794Z,3.30
2018-04-30T22:43:54.580Z,3.20
2018-04-30T22:46:22.331Z,2.77
2018-04-30T22:48:50.048Z,2.70
2018-04-30T22:51:17.707Z,2.67
2018-04-30T22:53:45.391Z,2.63
2018-04-30T22:56:13.081Z,2.97
2018-04-30T22:58:40.809Z,2.90
2018-04-30T23:01:08.593Z,2.93
2018-04-30T23:03:36.260Z,2.60
2018-04-30T23:06:03.874Z,3.53
2018-04-30T23:08:31.488Z,3.53
2018-04-30T23:10:59.158Z,3.17
2018-04-30T23:13:26.831Z,2.93
2018-04-30T23:15:54.555Z,3.07
2018-04-30T23:18:22.212Z,2.93
2018-04-30T23:20:49.885Z,2.50
2018-04-30T23:23:17.671Z,2.77
2018-04-30T23:25:45.326Z,2.90
2018-04-30T23:28:12.967Z,3.67
2018-04-30T23:30:40.605Z,2.70
2018-04-30T23:33:08.214Z,3.47
2018-04-30T23:35:35.876Z,2.67
2018-04-30T23:38:03.701Z,2.50
2018-04-30T23:40:31.405Z,2.80
2018-04-30T23:42:59.101Z,2.87
2018-04-30T23:45:26.742Z,2.67
2018-04-30T23:47:54.436Z,2.87
2018-04-30T23:50:22.060Z,3.00
2018-04-30T23:52:49.749Z,2.80
2018-04-30T23:55:18.207Z,3.30
2018-04-30T23:57:45.864Z,2.53
